createdAt,value
2024-03-10T00:00:27.093Z,8.66
2024-03-10T00:03:15.314Z,8.64
2024-03-10T00:05:43.340Z,8.60
2024-03-10T00:08:11.302Z,8.59
2024-03-10T00:10:42.615Z,8.59
2024-03-10T00:13:11.149Z,8.60
2024-03-10T00:15:39.123Z,8.59
2024-03-10T00:18:09.661Z,8.54
2024-03-10T00:20:37.792Z,8.51
2024-03-10T00:23:07.253Z,8.47
2024-03-10T00:25:36.362Z,8.41
2024-03-10T00:28:04.988Z,8.35
2024-03-10T00:30:34.783Z,8.32
2024-03-10T00:33:02.818Z,8.30
2024-03-10T00:35:30.984Z,8.27
2024-03-10T00:37:59.100Z,8.23
2024-03-10T00:40:27.770Z,8.21
2024-03-10T00:42:55.647Z,8.22
2024-03-10T00:45:26.384Z,8.25
2024-03-10T00:47:56.190Z,8.25
2024-03-10T00:50:24.226Z,8.23
2024-03-10T00:52:52.569Z,8.21
2024-03-10T00:55:20.589Z,8.18
2024-03-10T00:57:48.810Z,8.13
2024-03-10T01:00:17.038Z,8.10
2024-03-10T01:02:49.040Z,8.09
2024-03-10T01:05:17.426Z,8.10
2024-03-10T01:07:45.417Z,8.09
2024-03-10T01:10:13.432Z,8.06
2024-03-10T01:12:41.520Z,8.02
2024-03-10T01:15:09.780Z,7.99
2024-03-10T01:17:38.921Z,7.95
2024-03-10T01:20:08.078Z,7.92
2024-03-10T01:22:36.233Z,7.91
2024-03-10T01:25:05.915Z,7.90
2024-03-10T01:27:34.043Z,7.89
2024-03-10T01:30:02.287Z,7.88
2024-03-10T01:32:31.166Z,7.84
2024-03-10T01:34:59.220Z,7.78
2024-03-10T01:37:27.295Z,7.75
2024-03-10T01:39:55.276Z,7.72
2024-03-10T01:42:23.180Z,7.68
2024-03-10T01:44:51.274Z,7.67
2024-03-10T01:47:19.277Z,7.63
2024-03-10T01:49:47.666Z,7.59
2024-03-10T01:52:15.758Z,7.56
2024-03-10T01:54:44.526Z,7.52
2024-03-10T01:57:12.643Z,7.47
2024-03-10T01:59:40.757Z,7.42
2024-03-10T02:02:08.946Z,7.35
2024-03-10T02:04:39.188Z,7.31
2024-03-10T02:07:07.582Z,7.26
2024-03-10T02:09:37.210Z,7.22
2024-03-10T02:12:07.106Z,7.19
2024-03-10T02:14:35.308Z,7.19
2024-03-10T02:17:03.504Z,7.17
2024-03-10T02:19:31.598Z,7.18
2024-03-10T02:21:59.629Z,7.17
2024-03-10T02:24:38.153Z,7.13
2024-03-10T02:27:07.092Z,7.12
2024-03-10T02:29:51.199Z,7.12
2024-03-10T02:32:38.138Z,7.09
2024-03-10T02:35:26.154Z,7.10
2024-03-10T02:38:12.886Z,7.12
2024-03-10T02:40:59.667Z,7.12
2024-03-10T02:43:46.095Z,7.11
2024-03-10T02:46:32.834Z,7.10
2024-03-10T02:49:00.844Z,7.07
2024-03-10T02:51:28.767Z,7.06
2024-03-10T02:53:56.758Z,7.05
2024-03-10T02:56:25.053Z,7.06
2024-03-10T02:58:53.034Z,7.08
2024-03-10T03:01:22.775Z,7.06
2024-03-10T03:03:53.197Z,7.03
2024-03-10T03:06:23.886Z,6.98
2024-03-10T03:08:51.942Z,6.96
2024-03-10T03:11:19.980Z,6.94
2024-03-10T03:13:49.076Z,6.94
2024-03-10T03:16:17.049Z,6.95
2024-03-10T03:18:46.482Z,6.93
2024-03-10T03:21:14.890Z,6.89
2024-03-10T03:23:42.892Z,6.82
2024-03-10T03:26:10.773Z,6.78
2024-03-10T03:28:38.887Z,6.74
2024-03-10T03:31:07.012Z,6.74
2024-03-10T03:33:34.931Z,6.72
2024-03-10T03:36:03.613Z,6.71
2024-03-10T03:38:31.862Z,6.69
2024-03-10T03:40:59.884Z,6.67
2024-03-10T03:43:27.805Z,6.63
2024-03-10T03:45:55.731Z,6.60
2024-03-10T03:48:23.703Z,6.60
2024-03-10T03:50:51.929Z,6.60
2024-03-10T03:53:20.011Z,6.60
2024-03-10T03:55:48.204Z,6.64
2024-03-10T03:58:16.292Z,6.66
2024-03-10T04:00:44.427Z,6.64
2024-03-10T04:03:12.385Z,6.62
2024-03-10T04:05:42.220Z,6.61
2024-03-10T04:08:12.935Z,6.61
2024-03-10T04:10:41.145Z,6.59
2024-03-10T04:13:09.156Z,6.57
2024-03-10T04:15:37.157Z,6.57
2024-03-10T04:18:06.337Z,6.59
2024-03-10T04:20:36.385Z,6.61
2024-03-10T04:23:06.820Z,6.64
2024-03-10T04:25:35.668Z,6.64
2024-03-10T04:28:03.986Z,6.64
2024-03-10T04:30:32.595Z,6.64
2024-03-10T04:33:00.659Z,6.64
2024-03-10T04:35:29.749Z,6.62
2024-03-10T04:37:57.960Z,6.61
2024-03-10T04:40:25.822Z,6.62
2024-03-10T04:42:53.694Z,6.59
2024-03-10T04:45:22.216Z,6.59
2024-03-10T04:47:50.136Z,6.59
2024-03-10T04:50:20.145Z,6.56
2024-03-10T04:52:48.210Z,6.55
2024-03-10T04:55:16.705Z,6.56
2024-03-10T04:57:44.606Z,6.57
2024-03-10T05:00:17.290Z,6.58
2024-03-10T05:02:46.406Z,6.56
2024-03-10T05:05:17.275Z,6.53
2024-03-10T05:07:52.426Z,6.49
2024-03-10T05:10:20.918Z,6.46
2024-03-10T05:12:49.057Z,6.44
2024-03-10T05:15:17.035Z,6.46
2024-03-10T05:17:45.034Z,6.46
2024-03-10T05:20:16.334Z,6.45
2024-03-10T05:22:45.087Z,6.41
2024-03-10T05:25:13.143Z,6.38
2024-03-10T05:27:42.940Z,6.35
2024-03-10T05:30:11.466Z,6.38
2024-03-10T05:32:39.548Z,6.43
2024-03-10T05:35:07.951Z,6.49
2024-03-10T05:37:37.464Z,6.54
2024-03-10T05:40:08.767Z,6.58
2024-03-10T05:42:36.641Z,6.57
2024-03-10T05:45:05.709Z,6.56
2024-03-10T05:47:34.361Z,6.55
2024-03-10T05:50:03.622Z,6.58
2024-03-10T05:52:31.671Z,6.60
2024-03-10T05:54:59.738Z,6.61
2024-03-10T05:57:31.197Z,6.61
2024-03-10T05:59:59.607Z,6.64
2024-03-10T06:02:27.742Z,6.70
2024-03-10T06:04:56.254Z,6.76
2024-03-10T06:07:24.167Z,6.80
2024-03-10T06:09:52.159Z,6.87
2024-03-10T06:12:20.123Z,6.92
2024-03-10T06:14:48.025Z,6.96
2024-03-10T06:17:15.973Z,6.99
2024-03-10T06:20:02.673Z,7.01
2024-03-10T06:22:49.783Z,7.06
2024-03-10T06:25:24.345Z,7.08
2024-03-10T06:27:53.220Z,7.16
2024-03-10T06:30:21.454Z,7.22
2024-03-10T06:32:51.552Z,7.27
2024-03-10T06:35:20.655Z,7.30
2024-03-10T06:37:49.821Z,7.33
2024-03-10T06:40:18.044Z,7.38
2024-03-10T06:42:48.939Z,7.44
2024-03-10T06:45:16.850Z,7.50
2024-03-10T06:47:45.006Z,7.57
2024-03-10T06:50:14.585Z,7.66
2024-03-10T06:52:46.574Z,7.77
2024-03-10T06:55:16.219Z,7.88
2024-03-10T06:57:44.186Z,8.00
2024-03-10T07:00:14.294Z,8.15
2024-03-10T07:02:47.129Z,8.30
2024-03-10T07:05:16.731Z,8.48
2024-03-10T07:07:44.957Z,8.60
2024-03-10T07:10:14.844Z,8.67
2024-03-10T07:12:43.154Z,8.78
2024-03-10T07:15:11.442Z,8.91
2024-03-10T07:17:41.410Z,9.00
2024-03-10T07:20:11.359Z,9.14
2024-03-10T07:22:39.640Z,9.29
2024-03-10T07:25:09.516Z,9.42
2024-03-10T07:27:37.709Z,9.53
2024-03-10T07:30:06.289Z,9.61
2024-03-10T07:32:34.467Z,9.66
2024-03-10T07:35:03.814Z,9.71
2024-03-10T07:37:31.967Z,9.84
2024-03-10T07:39:59.863Z,10.09
2024-03-10T07:42:27.819Z,10.31
2024-03-10T07:44:56.895Z,10.48
2024-03-10T07:47:24.851Z,10.87
2024-03-10T07:49:52.957Z,11.54
2024-03-10T07:52:20.886Z,12.03
2024-03-10T07:54:48.780Z,12.28
2024-03-10T07:57:16.792Z,12.63
2024-03-10T07:59:44.659Z,12.93
2024-03-10T08:02:16.563Z,13.31
2024-03-10T08:04:46.492Z,13.71
2024-03-10T08:07:14.374Z,13.97
2024-03-10T08:09:42.554Z,14.35
2024-03-10T08:12:12.428Z,14.63
2024-03-10T08:14:41.060Z,14.80
2024-03-10T08:17:09.318Z,15.12
2024-03-10T08:19:37.980Z,15.45
2024-03-10T08:22:07.273Z,15.69
2024-03-10T08:24:35.278Z,16.04
2024-03-10T08:27:03.420Z,16.39
2024-03-10T08:29:31.548Z,16.72
2024-03-10T08:31:59.574Z,16.95
2024-03-10T08:34:29.113Z,17.13
2024-03-10T08:36:57.086Z,17.40
2024-03-10T08:39:26.186Z,17.57
2024-03-10T08:41:54.084Z,17.56
2024-03-10T08:44:23.765Z,17.53
2024-03-10T08:46:51.910Z,17.56
2024-03-10T08:49:19.947Z,17.68
2024-03-10T08:51:48.082Z,17.55
2024-03-10T08:54:16.694Z,17.29
2024-03-10T08:56:45.108Z,16.91
2024-03-10T08:59:17.360Z,16.37
2024-03-10T09:01:45.338Z,15.84
2024-03-10T09:04:13.273Z,15.40
2024-03-10T09:06:42.103Z,14.92
2024-03-10T09:09:10.112Z,14.42
2024-03-10T09:11:38.225Z,14.02
2024-03-10T09:14:09.159Z,13.75
2024-03-10T09:16:37.153Z,13.58
2024-03-10T09:19:09.084Z,13.40
2024-03-10T09:21:38.048Z,13.19
2024-03-10T09:24:06.233Z,13.06
2024-03-10T09:26:34.373Z,12.95
2024-03-10T09:29:02.488Z,12.88
2024-03-10T09:31:31.960Z,12.75
2024-03-10T09:34:01.056Z,12.64
2024-03-10T09:36:29.854Z,12.56
2024-03-10T09:38:59.017Z,12.49
2024-03-10T09:41:32.739Z,12.45
2024-03-10T09:44:02.143Z,12.39
2024-03-10T09:46:31.674Z,12.34
2024-03-10T09:49:03.145Z,12.30
2024-03-10T09:51:35.193Z,12.32
2024-03-10T09:54:03.972Z,12.38
2024-03-10T09:56:32.169Z,12.40
2024-03-10T09:59:07.110Z,12.46
2024-03-10T10:01:37.180Z,12.53
2024-03-10T10:04:09.061Z,12.63
2024-03-10T10:06:40.624Z,12.78
2024-03-10T10:09:12.032Z,12.90
2024-03-10T10:11:40.523Z,13.05
2024-03-10T10:14:17.069Z,13.26
2024-03-10T10:17:00.392Z,13.60
2024-03-10T10:19:30.988Z,14.26
2024-03-10T10:21:59.808Z,14.98
2024-03-10T10:24:28.343Z,15.44
2024-03-10T10:27:06.038Z,15.56
2024-03-10T10:29:50.628Z,15.51
2024-03-10T10:32:23.755Z,15.48
2024-03-10T10:34:53.647Z,15.47
2024-03-10T10:37:22.411Z,15.38
2024-03-10T10:39:50.521Z,15.28
2024-03-10T10:42:29.744Z,15.14
2024-03-10T10:45:03.033Z,14.90
2024-03-10T10:47:35.337Z,14.69
2024-03-10T10:50:15.844Z,14.52
2024-03-10T10:52:44.892Z,14.39
2024-03-10T10:55:13.573Z,14.27
2024-03-10T10:57:45.885Z,14.18
2024-03-10T11:00:30.467Z,14.05
2024-03-10T11:03:18.884Z,13.92
2024-03-10T11:06:03.375Z,13.89
2024-03-10T11:08:38.512Z,13.89
2024-03-10T11:11:07.153Z,13.87
2024-03-10T11:13:39.499Z,13.85
2024-03-10T11:16:13.051Z,13.82
2024-03-10T11:18:43.243Z,13.76
2024-03-10T11:21:21.692Z,13.75
2024-03-10T11:23:52.811Z,13.75
2024-03-10T11:26:25.539Z,13.78
2024-03-10T11:28:58.054Z,13.86
2024-03-10T11:31:28.692Z,13.93
2024-03-10T11:33:58.105Z,13.99
2024-03-10T11:36:33.906Z,14.01
2024-03-10T11:39:25.490Z,14.06
2024-03-10T11:41:53.524Z,14.17
2024-03-10T11:44:24.317Z,14.22
2024-03-10T11:46:53.219Z,14.28
2024-03-10T11:49:21.281Z,14.35
2024-03-10T11:51:50.891Z,14.41
2024-03-10T11:54:20.332Z,14.48
2024-03-10T11:56:52.654Z,14.49
2024-03-10T11:59:21.151Z,14.50
2024-03-10T12:01:49.352Z,14.49
2024-03-10T12:04:18.438Z,14.48
2024-03-10T12:06:47.810Z,14.50
2024-03-10T12:09:22.002Z,14.54
2024-03-10T12:11:51.520Z,14.56
2024-03-10T12:14:20.783Z,14.60
2024-03-10T12:16:51.996Z,14.63
2024-03-10T12:19:21.823Z,14.64
2024-03-10T12:21:50.498Z,14.63
2024-03-10T12:24:19.491Z,14.65
2024-03-10T12:26:47.614Z,14.74
2024-03-10T12:29:21.481Z,14.98
2024-03-10T12:31:51.423Z,15.27
2024-03-10T12:34:20.624Z,15.43
2024-03-10T12:36:49.706Z,15.50
2024-03-10T12:39:17.987Z,15.55
2024-03-10T12:41:46.507Z,15.50
2024-03-10T12:44:15.057Z,15.45
2024-03-10T12:46:43.718Z,15.37
2024-03-10T12:49:11.867Z,15.30
2024-03-10T12:51:40.885Z,15.33
2024-03-10T12:54:09.152Z,15.36
2024-03-10T12:56:37.417Z,15.40
2024-03-10T12:59:05.845Z,15.49
2024-03-10T13:01:35.352Z,15.63
2024-03-10T13:04:03.486Z,15.76
2024-03-10T13:06:31.869Z,15.92
2024-03-10T13:09:00.488Z,16.02
2024-03-10T13:11:32.053Z,16.22
2024-03-10T13:14:00.911Z,16.50
2024-03-10T13:16:28.949Z,16.78
2024-03-10T13:18:59.715Z,17.02
2024-03-10T13:21:28.388Z,17.23
2024-03-10T13:23:56.386Z,17.49
2024-03-10T13:26:24.338Z,17.80
2024-03-10T13:28:52.663Z,18.10
2024-03-10T13:31:20.973Z,18.29
2024-03-10T13:33:50.587Z,18.29
2024-03-10T13:36:18.857Z,18.18
2024-03-10T13:38:49.056Z,17.95
2024-03-10T13:41:17.444Z,17.81
2024-03-10T13:43:46.146Z,17.71
2024-03-10T13:46:15.795Z,17.61
2024-03-10T13:48:43.850Z,17.50
2024-03-10T13:51:12.100Z,17.36
2024-03-10T13:53:40.166Z,17.19
2024-03-10T13:56:08.258Z,16.96
2024-03-10T13:58:38.050Z,16.78
2024-03-10T14:01:07.064Z,16.68
2024-03-10T14:03:36.887Z,16.66
2024-03-10T14:06:04.975Z,16.67
2024-03-10T14:08:33.436Z,16.63
2024-03-10T14:11:01.492Z,16.61
2024-03-10T14:13:30.280Z,16.56
2024-03-10T14:15:58.857Z,16.50
2024-03-10T14:18:30.286Z,16.52
2024-03-10T14:20:58.488Z,16.52
2024-03-10T14:23:26.504Z,16.48
2024-03-10T14:25:54.925Z,16.35
2024-03-10T14:28:23.116Z,16.23
2024-03-10T14:30:51.177Z,16.11
2024-03-10T14:33:19.484Z,15.97
2024-03-10T14:35:48.101Z,15.81
2024-03-10T14:38:16.210Z,15.65
2024-03-10T14:40:44.267Z,15.54
2024-03-10T14:43:13.602Z,15.46
2024-03-10T14:45:41.736Z,15.39
2024-03-10T14:48:10.038Z,15.28
2024-03-10T14:50:39.103Z,15.14
2024-03-10T14:53:07.427Z,15.03
2024-03-10T14:55:36.035Z,14.98
2024-03-10T14:58:05.913Z,14.96
2024-03-10T15:00:35.844Z,14.90
2024-03-10T15:03:09.509Z,14.87
2024-03-10T15:05:41.263Z,14.84
2024-03-10T15:08:12.887Z,14.83
2024-03-10T15:10:43.004Z,14.79
2024-03-10T15:13:11.328Z,14.75
2024-03-10T15:15:40.355Z,14.72
2024-03-10T15:18:14.450Z,14.66
2024-03-10T15:20:48.395Z,14.60
2024-03-10T15:23:18.709Z,14.53
2024-03-10T15:25:48.749Z,14.45
2024-03-10T15:28:17.442Z,14.40
2024-03-10T15:30:45.646Z,14.32
2024-03-10T15:33:15.424Z,14.24
2024-03-10T15:35:43.564Z,14.20
2024-03-10T15:38:15.327Z,14.12
2024-03-10T15:40:44.413Z,14.04
2024-03-10T15:43:14.462Z,13.98
2024-03-10T15:45:43.961Z,13.90
2024-03-10T15:48:12.867Z,13.81
2024-03-10T15:50:41.293Z,13.73
2024-03-10T15:53:11.757Z,13.65
2024-03-10T15:55:40.468Z,13.57
2024-03-10T15:58:09.201Z,13.51
2024-03-10T16:00:38.253Z,13.45
2024-03-10T16:03:16.353Z,13.38
2024-03-10T16:05:48.879Z,13.32
2024-03-10T16:08:20.490Z,13.25
2024-03-10T16:10:50.458Z,13.21
2024-03-10T16:13:27.079Z,13.16
2024-03-10T16:15:55.704Z,13.12
2024-03-10T16:18:29.204Z,13.06
2024-03-10T16:21:00.250Z,13.00
2024-03-10T16:23:29.359Z,12.94
2024-03-10T16:25:57.700Z,12.92
2024-03-10T16:28:26.524Z,12.87
2024-03-10T16:30:54.528Z,12.82
2024-03-10T16:33:22.499Z,12.77
2024-03-10T16:35:50.612Z,12.75
2024-03-10T16:38:19.320Z,12.71
2024-03-10T16:40:47.897Z,12.66
2024-03-10T16:43:18.055Z,12.60
2024-03-10T16:45:49.491Z,12.55
2024-03-10T16:48:18.365Z,12.51
2024-03-10T16:50:47.363Z,12.48
2024-03-10T16:53:16.562Z,12.45
2024-03-10T16:55:48.437Z,12.42
2024-03-10T16:58:20.733Z,12.40
2024-03-10T17:00:50.211Z,12.36
2024-03-10T17:03:18.458Z,12.33
2024-03-10T17:05:46.511Z,12.31
2024-03-10T17:08:17.120Z,12.27
2024-03-10T17:10:48.513Z,12.21
2024-03-10T17:13:19.118Z,12.17
2024-03-10T17:15:48.152Z,12.10
2024-03-10T17:18:17.148Z,12.05
2024-03-10T17:20:45.462Z,12.03
2024-03-10T17:23:14.330Z,12.01
2024-03-10T17:25:42.689Z,11.96
2024-03-10T17:28:10.779Z,11.93
2024-03-10T17:30:38.894Z,11.88
2024-03-10T17:33:07.211Z,11.82
2024-03-10T17:35:35.667Z,11.76
2024-03-10T17:38:05.715Z,11.71
2024-03-10T17:40:33.879Z,11.65
2024-03-10T17:43:01.917Z,11.61
2024-03-10T17:45:29.916Z,11.53
2024-03-10T17:47:58.144Z,11.49
2024-03-10T17:50:26.449Z,11.48
2024-03-10T17:52:54.540Z,11.48
2024-03-10T17:55:22.713Z,11.47
2024-03-10T17:57:51.266Z,11.44
2024-03-10T18:00:23.872Z,11.39
2024-03-10T18:02:52.235Z,11.33
2024-03-10T18:05:23.790Z,11.26
2024-03-10T18:07:53.317Z,11.19
2024-03-10T18:10:22.764Z,11.14
2024-03-10T18:12:52.725Z,11.11
2024-03-10T18:15:22.006Z,11.08
2024-03-10T18:17:50.380Z,11.05
2024-03-10T18:20:21.262Z,11.00
2024-03-10T18:22:49.801Z,10.98
2024-03-10T18:25:18.101Z,10.94
2024-03-10T18:27:46.135Z,10.90
2024-03-10T18:30:15.692Z,10.84
2024-03-10T18:32:44.358Z,10.79
2024-03-10T18:35:13.576Z,10.75
2024-03-10T18:37:42.153Z,10.71
2024-03-10T18:40:13.816Z,10.66
2024-03-10T18:42:42.147Z,10.64
2024-03-10T18:45:10.774Z,10.62
2024-03-10T18:47:38.959Z,10.59
2024-03-10T18:50:11.734Z,10.57
2024-03-10T18:52:43.940Z,10.53
2024-03-10T18:55:14.428Z,10.49
2024-03-10T18:57:42.704Z,10.49
2024-03-10T19:00:13.640Z,10.46
2024-03-10T19:02:42.939Z,10.43
2024-03-10T19:05:13.194Z,10.40
2024-03-10T19:07:42.368Z,10.38
2024-03-10T19:10:11.630Z,10.36
2024-03-10T19:12:41.572Z,10.33
2024-03-10T19:15:10.088Z,10.30
2024-03-10T19:17:40.295Z,10.28
2024-03-10T19:20:15.260Z,10.22
2024-03-10T19:22:51.892Z,10.18
2024-03-10T19:25:20.102Z,10.16
2024-03-10T19:27:49.265Z,10.12
2024-03-10T19:30:19.308Z,10.08
2024-03-10T19:32:48.545Z,10.04
2024-03-10T19:35:18.076Z,10.00
2024-03-10T19:37:47.095Z,9.97
2024-03-10T19:40:23.989Z,9.96
2024-03-10T19:42:54.644Z,9.91
2024-03-10T19:45:23.573Z,9.86
2024-03-10T19:47:51.772Z,9.82
2024-03-10T19:50:21.359Z,9.78
2024-03-10T19:52:51.061Z,9.71
2024-03-10T19:55:19.552Z,9.64
2024-03-10T19:57:47.969Z,9.60
2024-03-10T20:00:16.880Z,9.55
2024-03-10T20:02:47.057Z,9.52
2024-03-10T20:05:16.236Z,9.49
2024-03-10T20:07:50.277Z,9.45
2024-03-10T20:10:21.687Z,9.42
2024-03-10T20:12:51.509Z,9.42
2024-03-10T20:15:19.872Z,9.42
2024-03-10T20:17:50.579Z,9.41
2024-03-10T20:20:27.035Z,9.40
2024-03-10T20:22:56.360Z,9.42
2024-03-10T20:25:26.140Z,9.41
2024-03-10T20:27:58.907Z,9.40
2024-03-10T20:30:31.315Z,9.41
2024-03-10T20:33:00.050Z,9.40
2024-03-10T20:35:28.340Z,9.39
2024-03-10T20:37:56.918Z,9.40
2024-03-10T20:40:25.099Z,9.40
2024-03-10T20:42:53.092Z,9.40
2024-03-10T20:45:21.111Z,9.39
2024-03-10T20:47:50.247Z,9.39
2024-03-10T20:50:24.728Z,9.39
2024-03-10T20:52:54.272Z,9.38
2024-03-10T20:55:22.823Z,9.37
2024-03-10T20:57:51.237Z,9.40
2024-03-10T21:00:20.932Z,9.39
2024-03-10T21:02:50.332Z,9.40
2024-03-10T21:05:18.836Z,9.40
2024-03-10T21:07:46.912Z,9.41
2024-03-10T21:10:16.770Z,9.43
2024-03-10T21:12:47.267Z,9.42
2024-03-10T21:15:18.877Z,9.41
2024-03-10T21:17:47.014Z,9.39
2024-03-10T21:20:15.618Z,9.37
2024-03-10T21:22:43.629Z,9.38
2024-03-10T21:25:11.493Z,9.40
2024-03-10T21:27:40.829Z,9.40
2024-03-10T21:30:08.954Z,9.40
2024-03-10T21:32:37.213Z,9.41
2024-03-10T21:35:08.566Z,9.45
2024-03-10T21:37:38.853Z,9.50
2024-03-10T21:40:11.825Z,9.50
2024-03-10T21:42:40.945Z,9.49
2024-03-10T21:45:09.878Z,9.46
2024-03-10T21:47:41.780Z,9.44
2024-03-10T21:50:15.951Z,9.43
2024-03-10T21:52:45.801Z,9.45
2024-03-10T21:55:14.287Z,9.43
2024-03-10T21:57:42.708Z,9.44
2024-03-10T22:00:18.257Z,9.47
2024-03-10T22:02:49.497Z,9.45
2024-03-10T22:05:18.962Z,9.46
2024-03-10T22:07:47.346Z,9.47
2024-03-10T22:10:17.281Z,9.45
2024-03-10T22:12:46.694Z,9.44
2024-03-10T22:15:16.308Z,9.42
2024-03-10T22:17:53.739Z,9.40
2024-03-10T22:20:27.739Z,9.41
2024-03-10T22:22:56.957Z,9.41
2024-03-10T22:25:27.045Z,9.40
2024-03-10T22:27:55.897Z,9.39
2024-03-10T22:30:31.213Z,9.39
2024-03-10T22:32:59.972Z,9.37
2024-03-10T22:35:28.393Z,9.37
2024-03-10T22:37:59.708Z,9.36
2024-03-10T22:40:32.685Z,9.35
2024-03-10T22:43:00.877Z,9.34
2024-03-10T22:45:31.846Z,9.32
2024-03-10T22:48:05.952Z,9.30
2024-03-10T22:50:36.421Z,9.27
2024-03-10T22:53:07.571Z,9.26
2024-03-10T22:55:36.106Z,9.23
2024-03-10T22:58:05.783Z,9.21
2024-03-10T23:00:38.680Z,9.17
2024-03-10T23:03:08.666Z,9.18
2024-03-10T23:05:37.732Z,9.18
2024-03-10T23:08:06.813Z,9.19
2024-03-10T23:10:43.479Z,9.19
2024-03-10T23:13:11.774Z,9.22
2024-03-10T23:15:40.951Z,9.22
2024-03-10T23:18:09.429Z,9.21
2024-03-10T23:20:37.616Z,9.22
2024-03-10T23:23:05.905Z,9.22
2024-03-10T23:25:33.967Z,9.19
2024-03-10T23:28:03.112Z,9.16
2024-03-10T23:30:31.073Z,9.13
2024-03-10T23:32:59.163Z,9.10
2024-03-10T23:35:27.461Z,9.11
2024-03-10T23:37:55.424Z,9.11
2024-03-10T23:40:26.503Z,9.12
2024-03-10T23:42:56.903Z,9.11
2024-03-10T23:45:24.865Z,9.10
2024-03-10T23:47:53.083Z,9.07
2024-03-10T23:50:24.920Z,9.05
2024-03-10T23:52:54.657Z,9.05
2024-03-10T23:55:36.087Z,9.07
2024-03-10T23:58:04.217Z,9.08
